To NAV CANADA Home Page Login to a new session Search on AWWS site Feedback and Comments Disclaimer Vers la page française équivalente Tips FAQ What's new on the site To the Forecasts and Observations / NOTAM section To "File a Flight Plan" website Publications and other links Update of the User's profile FIC Telephone Numbers My Weather Data Folder Route Weather Data Regional Weather Data Local Weather Data To the Forecasts and Observations / NOTAM section
Request Generated 05/25/2016 at 20:38:28 UTC . Weather information available at that time is displayed.

METAR/TAF

LA RONGE/LA RONGE (BARBER FIELD)/SK    

METAR CYVC 252000Z 04009KT 15SM FEW030 FEW250 16/08 A2990 RMK CU1CI1
SLP138 DENSITY ALT 1600FT=
METAR CYVC 251900Z 05007KT 15SM FEW020 FEW250 15/09 A2992 RMK SC1CI1
SLP143 DENSITY ALT 1400FT=
METAR CYVC 251800Z VRB03KT 15SM BKN015 13/08 A2993 RMK SC5 SLP149=

TAF CYVC 251838Z 2519/2607 VRB03KT P6SM BKN015
BECMG 2519/2520 SCT015
FM252100 09008KT P6SM BKN040
FM260300 VRB03KT P6SM BKN050
RMK NXT FCST BY 260100Z=
Your time UTC time
Weather data provided by Environment Canada and NAV CANADA